Longview Heights, Texas
Current Conditions -  °F | °C
As of 9:53 AM on Sunday 23 Nov 2014 (Local Time) from KGGG Reporting Station
Overcast Overcast  
Wind Chill: 64°   Ceiling: 1700
Heat Index: 64°   Visibility: 10mi
Dew Point: 59°   Wind: 14mph
Humidity: 84%   Direction: 230°SW
Pressure: 29.55"   Gusts: 22mph
Location:  32.5399°N, 94.6839°W
Report Text: KGGG 231553Z 23012G19KT 10SM OVC017 18/15 A2955 RMK AO2 RAE03 SLP004 P0000 T01780150
Loading
Personal Weather Stations






























Interactive Weather Map New forecast layout! Learn more

10-Day Weather Forecast

Advertisements
Track Severe Weather on mobile